sensor_id;sensor_type;location;lat;lon;timestamp;pressure;altitude;pressure_sealevel;temperature;humidity
28701;BME280;15877;52.344;16.790;2023-04-27T00:01:16;100796.78;;;8.44;56.74
28701;BME280;15877;52.344;16.790;2023-04-27T00:03:48;100799.86;;;8.38;56.85
28701;BME280;15877;52.344;16.790;2023-04-27T00:06:21;100791.94;;;8.33;57.29
28701;BME280;15877;52.344;16.790;2023-04-27T00:08:56;100791.55;;;8.29;57.26
28701;BME280;15877;52.344;16.790;2023-04-27T00:11:29;100791.23;;;8.25;57.14
28701;BME280;15877;52.344;16.790;2023-04-27T00:14:01;100790.14;;;8.22;57.61
28701;BME280;15877;52.344;16.790;2023-04-27T00:16:34;100790.18;;;8.25;57.62
28701;BME280;15877;52.344;16.790;2023-04-27T00:19:07;100788.31;;;8.31;57.61
28701;BME280;15877;52.344;16.790;2023-04-27T00:21:40;100782.23;;;8.34;57.40
28701;BME280;15877;52.344;16.790;2023-04-27T00:24:12;100780.00;;;8.42;56.86
28701;BME280;15877;52.344;16.790;2023-04-27T00:26:45;100779.65;;;8.44;57.10
28701;BME280;15877;52.344;16.790;2023-04-27T00:29:17;100776.04;;;8.46;57.26
28701;BME280;15877;52.344;16.790;2023-04-27T00:31:50;100776.31;;;8.49;57.21
28701;BME280;15877;52.344;16.790;2023-04-27T00:34:25;100783.35;;;8.52;57.41
28701;BME280;15877;52.344;16.790;2023-04-27T00:36:59;100743.31;;;8.32;57.38
28701;BME280;15877;52.344;16.790;2023-04-27T00:39:34;100771.38;;;8.49;57.60
28701;BME280;15877;52.344;16.790;2023-04-27T00:42:07;100771.71;;;8.49;57.67
28701;BME280;15877;52.344;16.790;2023-04-27T00:44:43;100784.21;;;8.56;58.00
28701;BME280;15877;52.344;16.790;2023-04-27T00:47:16;100789.48;;;8.62;57.76
28701;BME280;15877;52.344;16.790;2023-04-27T00:49:49;100788.81;;;8.60;57.91
28701;BME280;15877;52.344;16.790;2023-04-27T00:52:22;100785.17;;;8.58;58.14
28701;BME280;15877;52.344;16.790;2023-04-27T00:54:57;100791.50;;;8.67;58.22
28701;BME280;15877;52.344;16.790;2023-04-27T00:57:29;100788.45;;;8.71;58.23
28701;BME280;15877;52.344;16.790;2023-04-27T01:00:02;100788.05;;;8.75;58.15
28701;BME280;15877;52.344;16.790;2023-04-27T01:02:35;100792.55;;;8.77;58.16
28701;BME280;15877;52.344;16.790;2023-04-27T01:05:09;100792.02;;;8.73;58.47
28701;BME280;15877;52.344;16.790;2023-04-27T01:07:42;100790.34;;;8.68;58.55
28701;BME280;15877;52.344;16.790;2023-04-27T01:10:15;100790.99;;;8.66;58.79
28701;BME280;15877;52.344;16.790;2023-04-27T01:12:47;100791.70;;;8.75;58.57
28701;BME280;15877;52.344;16.790;2023-04-27T01:15:20;100794.33;;;8.71;59.18
28701;BME280;15877;52.344;16.790;2023-04-27T01:17:58;100795.97;;;8.77;58.81
28701;BME280;15877;52.344;16.790;2023-04-27T01:20:32;100797.55;;;8.73;59.10
28701;BME280;15877;52.344;16.790;2023-04-27T01:23:06;100794.77;;;8.65;59.40
28701;BME280;15877;52.344;16.790;2023-04-27T01:25:38;100791.36;;;8.68;59.22
28701;BME280;15877;52.344;16.790;2023-04-27T01:28:11;100791.11;;;8.83;58.58
28701;BME280;15877;52.344;16.790;2023-04-27T01:30:43;100792.91;;;8.83;58.97
28701;BME280;15877;52.344;16.790;2023-04-27T01:33:16;100794.42;;;8.85;59.10
28701;BME280;15877;52.344;16.790;2023-04-27T01:35:51;100794.41;;;8.94;58.84
28701;BME280;15877;52.344;16.790;2023-04-27T01:38:23;100797.41;;;8.91;59.16
28701;BME280;15877;52.344;16.790;2023-04-27T01:40:56;100802.56;;;8.94;59.57
28701;BME280;15877;52.344;16.790;2023-04-27T01:43:32;100804.17;;;8.99;59.18
28701;BME280;15877;52.344;16.790;2023-04-27T01:46:09;100804.48;;;9.03;59.19
28701;BME280;15877;52.344;16.790;2023-04-27T01:48:42;100803.68;;;9.01;59.27
28701;BME280;15877;52.344;16.790;2023-04-27T01:51:15;100806.66;;;9.05;59.00
28701;BME280;15877;52.344;16.790;2023-04-27T01:53:48;100806.32;;;9.04;59.05
28701;BME280;15877;52.344;16.790;2023-04-27T01:56:20;100805.48;;;9.01;59.09
28701;BME280;15877;52.344;16.790;2023-04-27T01:58:54;100804.57;;;8.95;59.49
28701;BME280;15877;52.344;16.790;2023-04-27T02:01:27;100808.27;;;8.96;59.41
28701;BME280;15877;52.344;16.790;2023-04-27T02:04:01;100814.09;;;8.98;59.46
28701;BME280;15877;52.344;16.790;2023-04-27T02:06:34;100800.68;;;8.85;59.46
28701;BME280;15877;52.344;16.790;2023-04-27T02:09:09;100813.88;;;8.94;59.17
28701;BME280;15877;52.344;16.790;2023-04-27T02:11:43;100812.11;;;8.95;59.21
28701;BME280;15877;52.344;16.790;2023-04-27T02:14:16;100812.95;;;8.95;59.35
28701;BME280;15877;52.344;16.790;2023-04-27T02:16:49;100817.98;;;9.02;59.52
28701;BME280;15877;52.344;16.790;2023-04-27T02:19:22;100816.92;;;9.06;59.46
28701;BME280;15877;52.344;16.790;2023-04-27T02:21:55;100822.60;;;9.08;59.60
28701;BME280;15877;52.344;16.790;2023-04-27T02:24:27;100822.30;;;9.08;59.86
28701;BME280;15877;52.344;16.790;2023-04-27T02:26:59;100825.09;;;9.09;59.50
28701;BME280;15877;52.344;16.790;2023-04-27T02:29:32;100827.60;;;9.08;59.57
28701;BME280;15877;52.344;16.790;2023-04-27T02:32:09;100823.88;;;9.08;59.84
28701;BME280;15877;52.344;16.790;2023-04-27T02:34:42;100825.38;;;9.10;59.78
28701;BME280;15877;52.344;16.790;2023-04-27T02:37:14;100822.46;;;9.11;60.05
28701;BME280;15877;52.344;16.790;2023-04-27T02:39:47;100805.91;;;9.01;60.12
28701;BME280;15877;52.344;16.790;2023-04-27T02:42:20;100826.02;;;9.11;60.06
28701;BME280;15877;52.344;16.790;2023-04-27T02:44:53;100825.06;;;9.10;60.26
28701;BME280;15877;52.344;16.790;2023-04-27T02:47:25;100828.05;;;9.10;60.50
28701;BME280;15877;52.344;16.790;2023-04-27T02:49:58;100804.55;;;8.96;60.61
28701;BME280;15877;52.344;16.790;2023-04-27T02:52:31;100820.96;;;9.06;60.57
28701;BME280;15877;52.344;16.790;2023-04-27T02:55:04;100825.79;;;9.06;60.63
28701;BME280;15877;52.344;16.790;2023-04-27T02:57:37;100825.05;;;9.05;60.58
28701;BME280;15877;52.344;16.790;2023-04-27T03:00:11;100827.06;;;9.06;60.52
28701;BME280;15877;52.344;16.790;2023-04-27T03:02:44;100831.17;;;9.06;60.54
28701;BME280;15877;52.344;16.790;2023-04-27T03:05:17;100834.38;;;9.05;60.75
28701;BME280;15877;52.344;16.790;2023-04-27T03:07:50;100832.46;;;9.04;60.68
28701;BME280;15877;52.344;16.790;2023-04-27T03:10:22;100835.32;;;9.02;61.00
28701;BME280;15877;52.344;16.790;2023-04-27T03:12:54;100839.54;;;9.03;60.88
28701;BME280;15877;52.344;16.790;2023-04-27T03:15:27;100839.83;;;9.00;60.60
28701;BME280;15877;52.344;16.790;2023-04-27T03:18:00;100835.98;;;8.98;60.61
28701;BME280;15877;52.344;16.790;2023-04-27T03:20:32;100843.73;;;9.00;60.70
28701;BME280;15877;52.344;16.790;2023-04-27T03:23:06;100846.39;;;8.99;60.88
28701;BME280;15877;52.344;16.790;2023-04-27T03:25:38;100845.83;;;8.97;60.96
28701;BME280;15877;52.344;16.790;2023-04-27T03:28:11;100849.32;;;8.98;60.82
28701;BME280;15877;52.344;16.790;2023-04-27T03:30:43;100854.70;;;8.97;60.96
28701;BME280;15877;52.344;16.790;2023-04-27T03:33:16;100842.75;;;8.86;61.04
28701;BME280;15877;52.344;16.790;2023-04-27T03:35:56;100859.05;;;8.95;61.00
28701;BME280;15877;52.344;16.790;2023-04-27T03:38:29;100856.91;;;8.90;60.90
28701;BME280;15877;52.344;16.790;2023-04-27T03:41:02;100845.64;;;8.78;61.12
28701;BME280;15877;52.344;16.790;2023-04-27T03:43:35;100863.42;;;8.86;60.83
28701;BME280;15877;52.344;16.790;2023-04-27T03:46:07;100864.45;;;8.87;60.67
28701;BME280;15877;52.344;16.790;2023-04-27T03:48:40;100868.08;;;8.88;60.71
28701;BME280;15877;52.344;16.790;2023-04-27T03:51:14;100870.09;;;8.89;60.40
28701;BME280;15877;52.344;16.790;2023-04-27T03:53:48;100869.50;;;8.90;60.45
28701;BME280;15877;52.344;16.790;2023-04-27T03:56:21;100841.18;;;8.75;60.69
28701;BME280;15877;52.344;16.790;2023-04-27T03:58:54;100872.35;;;8.92;60.61
28701;BME280;15877;52.344;16.790;2023-04-27T04:01:34;100871.41;;;8.91;60.76
28701;BME280;15877;52.344;16.790;2023-04-27T04:04:07;100873.09;;;8.96;60.73
28701;BME280;15877;52.344;16.790;2023-04-27T04:06:40;100871.32;;;8.99;60.95
28701;BME280;15877;52.344;16.790;2023-04-27T04:09:14;100867.80;;;8.94;61.05
28701;BME280;15877;52.344;16.790;2023-04-27T04:11:47;100882.48;;;8.99;61.28
28701;BME280;15877;52.344;16.790;2023-04-27T04:14:20;100886.86;;;9.00;61.19
28701;BME280;15877;52.344;16.790;2023-04-27T04:16:53;100889.32;;;9.02;61.11
28701;BME280;15877;52.344;16.790;2023-04-27T04:19:25;100889.00;;;9.02;61.24
28701;BME280;15877;52.344;16.790;2023-04-27T04:21:58;100890.70;;;9.05;61.43
28701;BME280;15877;52.344;16.790;2023-04-27T04:24:32;100892.86;;;9.06;61.34
28701;BME280;15877;52.344;16.790;2023-04-27T04:27:04;100887.64;;;9.06;61.40
28701;BME280;15877;52.344;16.790;2023-04-27T04:29:37;100891.97;;;9.12;61.59
28701;BME280;15877;52.344;16.790;2023-04-27T04:32:10;100894.77;;;9.13;61.89
28701;BME280;15877;52.344;16.790;2023-04-27T04:34:50;100895.73;;;9.18;61.84
28701;BME280;15877;52.344;16.790;2023-04-27T04:37:26;100897.47;;;9.18;61.90
28701;BME280;15877;52.344;16.790;2023-04-27T04:39:58;100899.70;;;9.21;61.81
28701;BME280;15877;52.344;16.790;2023-04-27T04:42:31;100878.71;;;9.11;61.60
28701;BME280;15877;52.344;16.790;2023-04-27T04:45:06;100899.14;;;9.25;61.93
28701;BME280;15877;52.344;16.790;2023-04-27T04:47:39;100900.55;;;9.24;62.01
28701;BME280;15877;52.344;16.790;2023-04-27T04:50:14;100899.91;;;9.26;62.15
28701;BME280;15877;52.344;16.790;2023-04-27T04:52:47;100898.52;;;9.32;61.78
28701;BME280;15877;52.344;16.790;2023-04-27T04:55:20;100900.84;;;9.30;62.17
28701;BME280;15877;52.344;16.790;2023-04-27T04:57:54;100904.69;;;9.36;62.24
28701;BME280;15877;52.344;16.790;2023-04-27T05:00:27;100890.39;;;9.26;62.29
28701;BME280;15877;52.344;16.790;2023-04-27T05:02:59;100888.98;;;9.33;61.99
28701;BME280;15877;52.344;16.790;2023-04-27T05:05:32;100898.48;;;9.42;62.15
28701;BME280;15877;52.344;16.790;2023-04-27T05:08:05;100889.85;;;9.43;61.99
28701;BME280;15877;52.344;16.790;2023-04-27T05:10:37;100905.57;;;9.48;62.61
28701;BME280;15877;52.344;16.790;2023-04-27T05:13:10;100917.88;;;9.49;62.65
28701;BME280;15877;52.344;16.790;2023-04-27T05:15:42;100920.52;;;9.45;62.93
28701;BME280;15877;52.344;16.790;2023-04-27T05:18:15;100926.29;;;9.49;62.83
28701;BME280;15877;52.344;16.790;2023-04-27T05:20:47;100929.02;;;9.60;62.47
28701;BME280;15877;52.344;16.790;2023-04-27T05:23:20;100933.23;;;9.48;62.98
28701;BME280;15877;52.344;16.790;2023-04-27T05:25:53;100940.93;;;9.39;63.27
28701;BME280;15877;52.344;16.790;2023-04-27T05:28:26;100941.96;;;9.42;63.09
28701;BME280;15877;52.344;16.790;2023-04-27T05:30:58;100944.81;;;9.30;63.19
28701;BME280;15877;52.344;16.790;2023-04-27T05:33:31;100947.67;;;9.31;62.67
28701;BME280;15877;52.344;16.790;2023-04-27T05:36:05;100949.16;;;9.32;62.40
28701;BME280;15877;52.344;16.790;2023-04-27T05:38:37;100955.13;;;9.29;62.46
28701;BME280;15877;52.344;16.790;2023-04-27T05:41:10;100952.16;;;9.55;61.31
28701;BME280;15877;52.344;16.790;2023-04-27T05:43:43;100953.58;;;9.59;60.95
28701;BME280;15877;52.344;16.790;2023-04-27T05:46:15;100954.54;;;9.64;60.91
28701;BME280;15877;52.344;16.790;2023-04-27T05:48:48;100940.30;;;9.63;60.34
28701;BME280;15877;52.344;16.790;2023-04-27T05:51:20;100959.73;;;9.54;60.47
28701;BME280;15877;52.344;16.790;2023-04-27T05:53:54;100953.16;;;9.47;60.91
28701;BME280;15877;52.344;16.790;2023-04-27T05:56:26;100957.05;;;9.63;60.73
28701;BME280;15877;52.344;16.790;2023-04-27T05:58:59;100965.84;;;9.70;60.57
28701;BME280;15877;52.344;16.790;2023-04-27T06:01:32;100968.01;;;9.85;60.01
28701;BME280;15877;52.344;16.790;2023-04-27T06:04:05;100949.43;;;9.75;59.73
28701;BME280;15877;52.344;16.790;2023-04-27T06:06:37;100963.27;;;9.83;59.51
28701;BME280;15877;52.344;16.790;2023-04-27T06:09:10;100958.23;;;9.91;59.34
28701;BME280;15877;52.344;16.790;2023-04-27T06:11:45;100958.69;;;9.84;59.28
28701;BME280;15877;52.344;16.790;2023-04-27T06:14:17;100939.77;;;9.70;58.80
28701;BME280;15877;52.344;16.790;2023-04-27T06:16:50;100949.73;;;9.91;58.46
28701;BME280;15877;52.344;16.790;2023-04-27T06:19:23;100963.48;;;9.94;58.75
28701;BME280;15877;52.344;16.790;2023-04-27T06:21:57;100966.04;;;9.88;59.15
28701;BME280;15877;52.344;16.790;2023-04-27T06:24:29;100961.65;;;9.89;59.20
28701;BME280;15877;52.344;16.790;2023-04-27T06:27:01;100963.57;;;9.90;59.42
28701;BME280;15877;52.344;16.790;2023-04-27T06:29:34;100949.98;;;9.96;58.46
28701;BME280;15877;52.344;16.790;2023-04-27T06:32:07;100962.29;;;10.06;58.60
28701;BME280;15877;52.344;16.790;2023-04-27T06:34:39;100953.77;;;10.12;57.99
28701;BME280;15877;52.344;16.790;2023-04-27T06:37:12;100967.42;;;10.12;58.02
28701;BME280;15877;52.344;16.790;2023-04-27T06:39:47;100966.87;;;10.06;58.90
28701;BME280;15877;52.344;16.790;2023-04-27T06:42:19;100962.51;;;9.96;58.98
28701;BME280;15877;52.344;16.790;2023-04-27T06:44:54;100967.37;;;9.97;58.93
28701;BME280;15877;52.344;16.790;2023-04-27T06:47:26;100963.52;;;10.07;58.61
28701;BME280;15877;52.344;16.790;2023-04-27T06:49:59;100965.10;;;10.07;58.38
28701;BME280;15877;52.344;16.790;2023-04-27T06:52:33;100967.78;;;10.14;57.94
28701;BME280;15877;52.344;16.790;2023-04-27T06:55:07;100965.15;;;10.04;58.13
28701;BME280;15877;52.344;16.790;2023-04-27T06:57:40;100973.09;;;10.04;58.08
28701;BME280;15877;52.344;16.790;2023-04-27T07:00:14;100974.09;;;10.04;57.80
28701;BME280;15877;52.344;16.790;2023-04-27T07:02:47;100974.76;;;10.16;57.53
28701;BME280;15877;52.344;16.790;2023-04-27T07:05:19;100970.19;;;10.19;56.99
28701;BME280;15877;52.344;16.790;2023-04-27T07:07:52;100971.31;;;10.18;56.88
28701;BME280;15877;52.344;16.790;2023-04-27T07:10:26;100966.52;;;10.14;57.00
28701;BME280;15877;52.344;16.790;2023-04-27T07:12:58;100970.30;;;10.12;56.70
28701;BME280;15877;52.344;16.790;2023-04-27T07:15:31;100972.81;;;10.19;56.77
28701;BME280;15877;52.344;16.790;2023-04-27T07:18:04;100970.92;;;10.20;55.80
28701;BME280;15877;52.344;16.790;2023-04-27T07:20:40;100973.92;;;10.32;55.69
28701;BME280;15877;52.344;16.790;2023-04-27T07:23:13;100971.67;;;10.36;55.03
28701;BME280;15877;52.344;16.790;2023-04-27T07:25:46;100968.38;;;10.40;54.87
28701;BME280;15877;52.344;16.790;2023-04-27T07:28:19;100962.45;;;10.36;54.37
28701;BME280;15877;52.344;16.790;2023-04-27T07:30:52;100969.11;;;10.46;54.08
28701;BME280;15877;52.344;16.790;2023-04-27T07:33:26;100977.10;;;10.44;53.87
28701;BME280;15877;52.344;16.790;2023-04-27T07:35:58;100974.83;;;10.54;54.37
28701;BME280;15877;52.344;16.790;2023-04-27T07:38:32;100972.64;;;10.52;54.46
28701;BME280;15877;52.344;16.790;2023-04-27T07:41:04;100975.29;;;10.58;53.72
28701;BME280;15877;52.344;16.790;2023-04-27T07:43:37;100975.00;;;10.59;53.05
28701;BME280;15877;52.344;16.790;2023-04-27T07:46:10;100974.81;;;10.61;53.24
28701;BME280;15877;52.344;16.790;2023-04-27T07:48:43;100974.74;;;10.69;52.94
28701;BME280;15877;52.344;16.790;2023-04-27T07:51:16;100963.27;;;10.75;52.62
28701;BME280;15877;52.344;16.790;2023-04-27T07:53:48;100978.77;;;10.83;52.59
28701;BME280;15877;52.344;16.790;2023-04-27T07:56:21;100979.73;;;10.97;51.55
28701;BME280;15877;52.344;16.790;2023-04-27T07:58:53;100979.96;;;10.97;51.07
28701;BME280;15877;52.344;16.790;2023-04-27T08:01:27;100982.52;;;10.89;51.05
28701;BME280;15877;52.344;16.790;2023-04-27T08:03:59;100977.97;;;10.95;50.37
28701;BME280;15877;52.344;16.790;2023-04-27T08:06:32;100976.55;;;11.05;49.69
28701;BME280;15877;52.344;16.790;2023-04-27T08:09:06;100973.40;;;11.04;49.13
28701;BME280;15877;52.344;16.790;2023-04-27T08:11:39;100976.34;;;11.04;49.12
28701;BME280;15877;52.344;16.790;2023-04-27T08:14:12;100974.55;;;11.19;49.42
28701;BME280;15877;52.344;16.790;2023-04-27T08:16:44;100976.41;;;11.00;48.84
28701;BME280;15877;52.344;16.790;2023-04-27T08:19:17;100979.15;;;11.13;47.98
28701;BME280;15877;52.344;16.790;2023-04-27T08:21:49;100978.49;;;11.15;48.40
28701;BME280;15877;52.344;16.790;2023-04-27T08:24:22;100979.36;;;11.23;47.78
28701;BME280;15877;52.344;16.790;2023-04-27T08:26:54;100984.11;;;11.26;47.56
28701;BME280;15877;52.344;16.790;2023-04-27T08:29:27;100978.88;;;11.23;47.09
28701;BME280;15877;52.344;16.790;2023-04-27T08:32:01;100979.91;;;11.35;47.54
28701;BME280;15877;52.344;16.790;2023-04-27T08:34:34;100985.63;;;11.35;46.74
28701;BME280;15877;52.344;16.790;2023-04-27T08:37:07;100987.83;;;11.28;46.71
28701;BME280;15877;52.344;16.790;2023-04-27T08:39:40;100982.88;;;11.33;46.90
28701;BME280;15877;52.344;16.790;2023-04-27T08:42:13;100979.91;;;11.23;47.84
28701;BME280;15877;52.344;16.790;2023-04-27T08:44:46;100984.73;;;11.37;47.31
28701;BME280;15877;52.344;16.790;2023-04-27T08:47:18;100983.59;;;11.61;47.05
28701;BME280;15877;52.344;16.790;2023-04-27T08:50:10;100987.09;;;11.69;45.96
28701;BME280;15877;52.344;16.790;2023-04-27T08:52:45;100988.11;;;11.84;44.92
28701;BME280;15877;52.344;16.790;2023-04-27T08:55:18;100985.50;;;11.85;45.78
28701;BME280;15877;52.344;16.790;2023-04-27T08:57:57;100985.29;;;11.88;46.46
28701;BME280;15877;52.344;16.790;2023-04-27T09:00:38;100983.01;;;11.99;46.28
28701;BME280;15877;52.344;16.790;2023-04-27T09:03:22;100986.86;;;12.14;45.73
28701;BME280;15877;52.344;16.790;2023-04-27T09:05:56;100991.63;;;11.97;45.25
28701;BME280;15877;52.344;16.790;2023-04-27T09:08:46;100987.34;;;12.07;45.34
28701;BME280;15877;52.344;16.790;2023-04-27T09:11:30;100984.77;;;12.22;43.78
28701;BME280;15877;52.344;16.790;2023-04-27T09:14:14;100985.24;;;12.12;44.00
28701;BME280;15877;52.344;16.790;2023-04-27T09:16:54;100972.29;;;12.09;44.00
28701;BME280;15877;52.344;16.790;2023-04-27T09:19:30;100977.02;;;12.18;43.77
28701;BME280;15877;52.344;16.790;2023-04-27T09:22:10;100985.61;;;12.02;43.97
28701;BME280;15877;52.344;16.790;2023-04-27T09:24:52;100979.45;;;11.97;43.15
28701;BME280;15877;52.344;16.790;2023-04-27T09:27:24;100978.03;;;11.68;41.52
28701;BME280;15877;52.344;16.790;2023-04-27T09:29:57;100978.65;;;11.64;41.62
28701;BME280;15877;52.344;16.790;2023-04-27T09:32:30;100979.19;;;11.77;41.21
28701;BME280;15877;52.344;16.790;2023-04-27T09:35:03;100979.05;;;11.78;42.14
28701;BME280;15877;52.344;16.790;2023-04-27T09:37:45;100978.39;;;11.68;41.36
28701;BME280;15877;52.344;16.790;2023-04-27T09:40:18;100984.48;;;11.57;41.07
28701;BME280;15877;52.344;16.790;2023-04-27T09:42:54;100981.77;;;11.50;41.56
28701;BME280;15877;52.344;16.790;2023-04-27T09:45:27;100976.05;;;11.59;41.83
28701;BME280;15877;52.344;16.790;2023-04-27T09:48:01;100973.84;;;11.56;41.11
28701;BME280;15877;52.344;16.790;2023-04-27T09:50:35;100979.26;;;11.65;41.70
28701;BME280;15877;52.344;16.790;2023-04-27T09:53:10;100972.65;;;11.62;41.45
28701;BME280;15877;52.344;16.790;2023-04-27T09:55:45;100986.05;;;11.64;41.93
28701;BME280;15877;52.344;16.790;2023-04-27T09:58:39;100978.15;;;11.72;41.86
28701;BME280;15877;52.344;16.790;2023-04-27T10:01:20;100962.06;;;11.59;41.62
28701;BME280;15877;52.344;16.790;2023-04-27T10:04:10;100971.73;;;11.78;40.86
28701;BME280;15877;52.344;16.790;2023-04-27T10:06:59;100971.33;;;11.75;41.09
28701;BME280;15877;52.344;16.790;2023-04-27T10:09:38;100972.60;;;11.88;41.55
28701;BME280;15877;52.344;16.790;2023-04-27T10:12:17;100974.28;;;11.82;41.01
28701;BME280;15877;52.344;16.790;2023-04-27T10:14:51;100977.29;;;11.84;40.95
28701;BME280;15877;52.344;16.790;2023-04-27T10:17:30;100975.98;;;11.83;41.08
28701;BME280;15877;52.344;16.790;2023-04-27T10:20:04;100968.55;;;12.13;40.43
28701;BME280;15877;52.344;16.790;2023-04-27T10:22:40;100968.20;;;12.64;40.38
28701;BME280;15877;52.344;16.790;2023-04-27T10:25:17;100969.65;;;12.91;39.87
28701;BME280;15877;52.344;16.790;2023-04-27T10:27:52;100969.04;;;12.98;38.66
28701;BME280;15877;52.344;16.790;2023-04-27T10:30:31;100972.58;;;13.14;38.67
28701;BME280;15877;52.344;16.790;2023-04-27T10:33:06;100973.41;;;12.98;38.76
28701;BME280;15877;52.344;16.790;2023-04-27T10:35:41;100980.55;;;12.97;39.09
28701;BME280;15877;52.344;16.790;2023-04-27T10:38:19;100979.35;;;12.68;38.94
28701;BME280;15877;52.344;16.790;2023-04-27T10:40:56;100979.20;;;12.51;39.34
28701;BME280;15877;52.344;16.790;2023-04-27T10:43:32;100982.04;;;12.32;39.72
28701;BME280;15877;52.344;16.790;2023-04-27T10:46:10;100976.32;;;12.29;39.78
28701;BME280;15877;52.344;16.790;2023-04-27T10:48:43;100976.16;;;12.26;39.85
28701;BME280;15877;52.344;16.790;2023-04-27T10:51:17;100973.19;;;12.25;39.66
28701;BME280;15877;52.344;16.790;2023-04-27T10:53:53;100981.07;;;12.15;39.59
28701;BME280;15877;52.344;16.790;2023-04-27T10:56:26;100982.92;;;12.15;39.23
28701;BME280;15877;52.344;16.790;2023-04-27T10:59:04;100985.36;;;12.01;39.12
28701;BME280;15877;52.344;16.790;2023-04-27T11:01:38;100985.27;;;11.95;39.27
28701;BME280;15877;52.344;16.790;2023-04-27T11:04:10;100988.99;;;11.88;39.89
28701;BME280;15877;52.344;16.790;2023-04-27T11:06:44;100997.69;;;11.92;39.84
28701;BME280;15877;52.344;16.790;2023-04-27T11:09:26;100995.98;;;11.78;39.20
28701;BME280;15877;52.344;16.790;2023-04-27T11:11:59;100993.05;;;11.78;39.39
28701;BME280;15877;52.344;16.790;2023-04-27T11:14:32;100990.15;;;11.83;39.43
28701;BME280;15877;52.344;16.790;2023-04-27T11:17:05;100988.47;;;11.83;39.46
28701;BME280;15877;52.344;16.790;2023-04-27T11:19:46;100987.33;;;11.91;39.49
28701;BME280;15877;52.344;16.790;2023-04-27T11:22:18;100991.74;;;11.86;39.42
28701;BME280;15877;52.344;16.790;2023-04-27T11:24:52;100988.98;;;11.94;39.64
28701;BME280;15877;52.344;16.790;2023-04-27T11:27:34;100993.82;;;12.15;39.87
28701;BME280;15877;52.344;16.790;2023-04-27T11:30:19;100991.18;;;12.18;40.09
28701;BME280;15877;52.344;16.790;2023-04-27T11:32:52;100992.11;;;12.27;40.19
28701;BME280;15877;52.344;16.790;2023-04-27T11:35:34;100995.02;;;12.42;39.97
28701;BME280;15877;52.344;16.790;2023-04-27T11:38:06;100991.28;;;12.88;39.90
28701;BME280;15877;52.344;16.790;2023-04-27T11:40:57;100993.05;;;13.25;39.60
28701;BME280;15877;52.344;16.790;2023-04-27T11:43:30;100986.59;;;13.26;38.00
28701;BME280;15877;52.344;16.790;2023-04-27T11:46:05;100979.92;;;12.97;39.32
28701;BME280;15877;52.344;16.790;2023-04-27T11:48:38;100992.89;;;12.85;40.10
28701;BME280;15877;52.344;16.790;2023-04-27T11:51:12;101008.92;;;13.00;38.49
28701;BME280;15877;52.344;16.790;2023-04-27T11:53:48;101001.98;;;13.03;38.15
28701;BME280;15877;52.344;16.790;2023-04-27T11:56:22;100986.58;;;12.91;39.09
28701;BME280;15877;52.344;16.790;2023-04-27T11:58:55;100988.13;;;13.19;39.75
28701;BME280;15877;52.344;16.790;2023-04-27T12:01:27;101000.96;;;13.51;38.74
28701;BME280;15877;52.344;16.790;2023-04-27T12:04:08;100985.44;;;13.32;36.96
28701;BME280;15877;52.344;16.790;2023-04-27T12:06:41;101002.76;;;13.36;36.68
28701;BME280;15877;52.344;16.790;2023-04-27T12:09:14;101004.89;;;13.31;37.02
28701;BME280;15877;52.344;16.790;2023-04-27T12:11:48;100995.61;;;13.19;36.93
28701;BME280;15877;52.344;16.790;2023-04-27T12:14:20;101003.06;;;13.13;37.24
28701;BME280;15877;52.344;16.790;2023-04-27T12:16:55;101002.80;;;13.03;37.70
28701;BME280;15877;52.344;16.790;2023-04-27T12:19:27;101007.14;;;12.85;38.43
28701;BME280;15877;52.344;16.790;2023-04-27T12:22:00;101002.23;;;12.75;38.39
28701;BME280;15877;52.344;16.790;2023-04-27T12:24:33;101006.48;;;12.72;38.57
28701;BME280;15877;52.344;16.790;2023-04-27T12:27:07;100998.17;;;12.65;38.23
28701;BME280;15877;52.344;16.790;2023-04-27T12:29:40;100994.06;;;12.42;38.97
28701;BME280;15877;52.344;16.790;2023-04-27T12:32:13;101006.19;;;12.64;38.68
28701;BME280;15877;52.344;16.790;2023-04-27T12:34:46;101001.28;;;12.79;38.67
28701;BME280;15877;52.344;16.790;2023-04-27T12:37:19;101003.84;;;12.98;38.38
28701;BME280;15877;52.344;16.790;2023-04-27T12:39:55;101007.08;;;12.93;38.42
28701;BME280;15877;52.344;16.790;2023-04-27T12:42:28;101005.24;;;13.06;38.26
28701;BME280;15877;52.344;16.790;2023-04-27T12:45:01;101006.30;;;13.08;38.19
28701;BME280;15877;52.344;16.790;2023-04-27T12:47:35;101008.68;;;13.14;38.26
28701;BME280;15877;52.344;16.790;2023-04-27T12:50:28;101007.25;;;12.96;38.34
28701;BME280;15877;52.344;16.790;2023-04-27T12:53:01;101011.27;;;13.01;38.17
28701;BME280;15877;52.344;16.790;2023-04-27T12:55:33;101008.61;;;13.07;37.84
28701;BME280;15877;52.344;16.790;2023-04-27T12:58:06;101009.71;;;13.10;37.85
28701;BME280;15877;52.344;16.790;2023-04-27T13:00:39;101014.88;;;12.99;37.41
28701;BME280;15877;52.344;16.790;2023-04-27T13:03:12;101017.25;;;13.01;37.00
28701;BME280;15877;52.344;16.790;2023-04-27T13:05:45;101019.90;;;12.92;37.16
28701;BME280;15877;52.344;16.790;2023-04-27T13:08:17;101021.51;;;12.85;37.36
28701;BME280;15877;52.344;16.790;2023-04-27T13:10:50;101019.33;;;13.03;37.30
28701;BME280;15877;52.344;16.790;2023-04-27T13:13:23;101008.40;;;13.39;38.05
28701;BME280;15877;52.344;16.790;2023-04-27T13:15:55;101013.10;;;13.57;37.28
28701;BME280;15877;52.344;16.790;2023-04-27T13:18:28;101015.10;;;13.56;36.26
28701;BME280;15877;52.344;16.790;2023-04-27T13:21:06;101007.98;;;13.43;36.29